sensor_id;sensor_type;location;lat;lon;timestamp;temperature;humidity
13521;DHT22;6832;51.186;3.236;2023-02-28T00:00:11;12.70;52.00
13521;DHT22;6832;51.186;3.236;2023-02-28T00:02:39;12.70;51.90
13521;DHT22;6832;51.186;3.236;2023-02-28T00:05:08;12.70;51.90
13521;DHT22;6832;51.186;3.236;2023-02-28T00:07:35;12.70;51.90
13521;DHT22;6832;51.186;3.236;2023-02-28T00:10:04;12.70;52.00
13521;DHT22;6832;51.186;3.236;2023-02-28T00:12:33;12.70;51.90
13521;DHT22;6832;51.186;3.236;2023-02-28T00:15:00;12.60;51.80
13521;DHT22;6832;51.186;3.236;2023-02-28T00:17:29;12.70;52.00
13521;DHT22;6832;51.186;3.236;2023-02-28T00:19:56;12.70;51.90
13521;DHT22;6832;51.186;3.236;2023-02-28T00:22:27;12.70;51.90
13521;DHT22;6832;51.186;3.236;2023-02-28T00:24:54;12.70;51.90
13521;DHT22;6832;51.186;3.236;2023-02-28T00:27:24;12.60;51.90
13521;DHT22;6832;51.186;3.236;2023-02-28T00:29:51;12.60;51.90
13521;DHT22;6832;51.186;3.236;2023-02-28T00:32:19;12.60;51.80
13521;DHT22;6832;51.186;3.236;2023-02-28T00:34:48;12.60;51.80
13521;DHT22;6832;51.186;3.236;2023-02-28T00:37:14;12.60;51.80
13521;DHT22;6832;51.186;3.236;2023-02-28T00:39:44;12.60;51.90
13521;DHT22;6832;51.186;3.236;2023-02-28T00:42:11;12.60;51.80
13521;DHT22;6832;51.186;3.236;2023-02-28T00:44:38;12.60;51.90
13521;DHT22;6832;51.186;3.236;2023-02-28T00:47:05;12.50;51.80
13521;DHT22;6832;51.186;3.236;2023-02-28T00:49:32;12.50;51.80
13521;DHT22;6832;51.186;3.236;2023-02-28T00:52:00;12.50;51.80
13521;DHT22;6832;51.186;3.236;2023-02-28T00:54:27;12.50;51.80
13521;DHT22;6832;51.186;3.236;2023-02-28T00:56:57;12.50;51.80
13521;DHT22;6832;51.186;3.236;2023-02-28T00:59:25;12.50;51.80
13521;DHT22;6832;51.186;3.236;2023-02-28T01:01:52;12.50;51.80
13521;DHT22;6832;51.186;3.236;2023-02-28T01:04:19;12.50;51.80
13521;DHT22;6832;51.186;3.236;2023-02-28T01:06:45;12.50;51.80
13521;DHT22;6832;51.186;3.236;2023-02-28T01:09:14;12.50;51.80
13521;DHT22;6832;51.186;3.236;2023-02-28T01:11:42;12.40;51.70
13521;DHT22;6832;51.186;3.236;2023-02-28T01:14:12;12.50;51.80
13521;DHT22;6832;51.186;3.236;2023-02-28T01:16:39;12.50;51.80
13521;DHT22;6832;51.186;3.236;2023-02-28T01:19:06;12.40;51.70
13521;DHT22;6832;51.186;3.236;2023-02-28T01:21:33;12.40;51.70
13521;DHT22;6832;51.186;3.236;2023-02-28T01:24:00;12.40;51.70
13521;DHT22;6832;51.186;3.236;2023-02-28T01:26:29;12.40;51.70
13521;DHT22;6832;51.186;3.236;2023-02-28T01:28:56;12.40;51.70
13521;DHT22;6832;51.186;3.236;2023-02-28T01:31:24;12.40;51.70
13521;DHT22;6832;51.186;3.236;2023-02-28T01:33:51;12.40;51.70
13521;DHT22;6832;51.186;3.236;2023-02-28T01:36:19;12.40;52.30
13521;DHT22;6832;51.186;3.236;2023-02-28T01:38:47;12.40;51.70
13521;DHT22;6832;51.186;3.236;2023-02-28T01:41:16;12.30;51.60
13521;DHT22;6832;51.186;3.236;2023-02-28T01:44:00;12.40;51.70
13521;DHT22;6832;51.186;3.236;2023-02-28T01:46:29;12.40;51.70
13521;DHT22;6832;51.186;3.236;2023-02-28T01:49:05;12.30;51.60
13521;DHT22;6832;51.186;3.236;2023-02-28T01:51:37;12.30;51.60
13521;DHT22;6832;51.186;3.236;2023-02-28T01:54:14;12.30;51.60
13521;DHT22;6832;51.186;3.236;2023-02-28T01:56:45;12.30;51.60
13521;DHT22;6832;51.186;3.236;2023-02-28T01:59:19;12.30;51.60
13521;DHT22;6832;51.186;3.236;2023-02-28T02:01:48;12.30;51.60
13521;DHT22;6832;51.186;3.236;2023-02-28T02:04:16;12.30;51.60
13521;DHT22;6832;51.186;3.236;2023-02-28T02:06:44;12.30;51.60
13521;DHT22;6832;51.186;3.236;2023-02-28T02:09:12;12.30;51.60
13521;DHT22;6832;51.186;3.236;2023-02-28T02:11:41;12.30;51.60
13521;DHT22;6832;51.186;3.236;2023-02-28T02:14:31;12.30;51.60
13521;DHT22;6832;51.186;3.236;2023-02-28T02:17:11;12.30;51.60
13521;DHT22;6832;51.186;3.236;2023-02-28T02:20:19;12.30;51.60
13521;DHT22;6832;51.186;3.236;2023-02-28T02:23:10;12.20;51.50
13521;DHT22;6832;51.186;3.236;2023-02-28T02:25:42;12.20;51.60
13521;DHT22;6832;51.186;3.236;2023-02-28T02:28:46;12.20;51.50
13521;DHT22;6832;51.186;3.236;2023-02-28T02:31:29;12.20;51.50
13521;DHT22;6832;51.186;3.236;2023-02-28T02:34:20;12.20;51.50
13521;DHT22;6832;51.186;3.236;2023-02-28T02:36:56;12.20;51.50
13521;DHT22;6832;51.186;3.236;2023-02-28T02:39:29;12.20;51.50
13521;DHT22;6832;51.186;3.236;2023-02-28T02:42:01;12.20;51.50
13521;DHT22;6832;51.186;3.236;2023-02-28T02:44:31;12.20;51.50
13521;DHT22;6832;51.186;3.236;2023-02-28T02:47:05;12.10;51.40
13521;DHT22;6832;51.186;3.236;2023-02-28T02:49:37;12.10;51.40
13521;DHT22;6832;51.186;3.236;2023-02-28T02:52:07;12.10;51.40
13521;DHT22;6832;51.186;3.236;2023-02-28T02:54:38;12.10;51.40
13521;DHT22;6832;51.186;3.236;2023-02-28T02:57:09;12.10;51.40
13521;DHT22;6832;51.186;3.236;2023-02-28T02:59:39;12.10;51.40
13521;DHT22;6832;51.186;3.236;2023-02-28T03:02:08;12.10;51.40
13521;DHT22;6832;51.186;3.236;2023-02-28T03:04:42;12.10;51.40
13521;DHT22;6832;51.186;3.236;2023-02-28T03:07:09;12.00;51.40
13521;DHT22;6832;51.186;3.236;2023-02-28T03:09:36;12.10;51.50
13521;DHT22;6832;51.186;3.236;2023-02-28T03:12:08;12.00;51.40
13521;DHT22;6832;51.186;3.236;2023-02-28T03:14:43;12.00;51.40
13521;DHT22;6832;51.186;3.236;2023-02-28T03:17:34;12.10;51.50
13521;DHT22;6832;51.186;3.236;2023-02-28T03:20:15;12.00;51.30
13521;DHT22;6832;51.186;3.236;2023-02-28T03:22:52;12.00;51.30
13521;DHT22;6832;51.186;3.236;2023-02-28T03:25:27;12.00;51.40
13521;DHT22;6832;51.186;3.236;2023-02-28T03:28:02;12.00;51.40
13521;DHT22;6832;51.186;3.236;2023-02-28T03:30:36;12.00;51.40
13521;DHT22;6832;51.186;3.236;2023-02-28T03:33:08;12.00;51.40
13521;DHT22;6832;51.186;3.236;2023-02-28T03:35:40;12.00;51.50
13521;DHT22;6832;51.186;3.236;2023-02-28T03:38:12;12.00;51.40
13521;DHT22;6832;51.186;3.236;2023-02-28T03:40:44;12.00;51.50
13521;DHT22;6832;51.186;3.236;2023-02-28T03:43:18;12.00;51.50
13521;DHT22;6832;51.186;3.236;2023-02-28T03:45:48;12.00;51.50
13521;DHT22;6832;51.186;3.236;2023-02-28T03:48:22;12.00;51.50
13521;DHT22;6832;51.186;3.236;2023-02-28T03:50:53;12.00;51.50
13521;DHT22;6832;51.186;3.236;2023-02-28T03:53:25;12.00;51.50
13521;DHT22;6832;51.186;3.236;2023-02-28T03:55:55;11.90;51.50
13521;DHT22;6832;51.186;3.236;2023-02-28T03:58:29;12.00;51.50
13521;DHT22;6832;51.186;3.236;2023-02-28T04:01:02;11.90;51.50
13521;DHT22;6832;51.186;3.236;2023-02-28T04:03:34;12.00;51.60
13521;DHT22;6832;51.186;3.236;2023-02-28T04:06:04;11.90;51.50
13521;DHT22;6832;51.186;3.236;2023-02-28T04:08:34;11.90;51.50
13521;DHT22;6832;51.186;3.236;2023-02-28T04:11:03;11.90;51.60
13521;DHT22;6832;51.186;3.236;2023-02-28T04:13:31;11.90;51.50
13521;DHT22;6832;51.186;3.236;2023-02-28T04:15:58;11.90;51.50
13521;DHT22;6832;51.186;3.236;2023-02-28T04:18:25;11.90;51.50
13521;DHT22;6832;51.186;3.236;2023-02-28T04:20:52;11.90;51.60
13521;DHT22;6832;51.186;3.236;2023-02-28T04:23:20;12.00;51.70
13521;DHT22;6832;51.186;3.236;2023-02-28T04:25:47;11.90;51.60
13521;DHT22;6832;51.186;3.236;2023-02-28T04:28:16;12.00;51.70
13521;DHT22;6832;51.186;3.236;2023-02-28T04:30:43;11.90;51.60
13521;DHT22;6832;51.186;3.236;2023-02-28T04:33:10;11.90;51.70
13521;DHT22;6832;51.186;3.236;2023-02-28T04:35:37;11.90;51.70
13521;DHT22;6832;51.186;3.236;2023-02-28T04:38:04;11.80;51.70
13521;DHT22;6832;51.186;3.236;2023-02-28T04:40:32;11.90;51.60
13521;DHT22;6832;51.186;3.236;2023-02-28T04:42:59;11.90;51.60
13521;DHT22;6832;51.186;3.236;2023-02-28T04:45:26;11.90;51.60
13521;DHT22;6832;51.186;3.236;2023-02-28T04:47:55;11.90;51.70
13521;DHT22;6832;51.186;3.236;2023-02-28T04:50:22;11.90;51.70
13521;DHT22;6832;51.186;3.236;2023-02-28T04:52:49;11.90;51.70
13521;DHT22;6832;51.186;3.236;2023-02-28T04:55:16;11.90;51.70
13521;DHT22;6832;51.186;3.236;2023-02-28T04:57:44;11.90;51.70
13521;DHT22;6832;51.186;3.236;2023-02-28T05:00:12;11.90;52.30
13521;DHT22;6832;51.186;3.236;2023-02-28T05:02:42;11.90;51.70
13521;DHT22;6832;51.186;3.236;2023-02-28T05:05:09;11.90;51.70
13521;DHT22;6832;51.186;3.236;2023-02-28T05:07:36;11.80;51.70
13521;DHT22;6832;51.186;3.236;2023-02-28T05:10:04;11.90;51.70
13521;DHT22;6832;51.186;3.236;2023-02-28T05:12:31;11.90;51.70
13521;DHT22;6832;51.186;3.236;2023-02-28T05:14:59;11.90;51.70
13521;DHT22;6832;51.186;3.236;2023-02-28T05:17:28;11.90;51.70
13521;DHT22;6832;51.186;3.236;2023-02-28T05:19:55;11.90;51.70
13521;DHT22;6832;51.186;3.236;2023-02-28T05:22:22;11.90;51.70
13521;DHT22;6832;51.186;3.236;2023-02-28T05:24:49;11.90;51.70
13521;DHT22;6832;51.186;3.236;2023-02-28T05:27:16;11.90;51.70
13521;DHT22;6832;51.186;3.236;2023-02-28T05:29:43;11.90;52.40
13521;DHT22;6832;51.186;3.236;2023-02-28T05:32:12;11.80;51.70
13521;DHT22;6832;51.186;3.236;2023-02-28T05:34:41;11.90;51.70
13521;DHT22;6832;51.186;3.236;2023-02-28T05:37:15;11.90;51.70
13521;DHT22;6832;51.186;3.236;2023-02-28T05:39:42;11.90;51.70
13521;DHT22;6832;51.186;3.236;2023-02-28T05:42:09;11.90;51.70
13521;DHT22;6832;51.186;3.236;2023-02-28T05:44:36;11.90;51.80
13521;DHT22;6832;51.186;3.236;2023-02-28T05:47:03;11.90;51.70
13521;DHT22;6832;51.186;3.236;2023-02-28T05:49:32;11.90;51.80
13521;DHT22;6832;51.186;3.236;2023-02-28T05:51:59;11.90;51.70
13521;DHT22;6832;51.186;3.236;2023-02-28T05:54:26;11.90;51.70
13521;DHT22;6832;51.186;3.236;2023-02-28T05:56:53;11.90;51.80
13521;DHT22;6832;51.186;3.236;2023-02-28T05:59:20;11.90;51.70
13521;DHT22;6832;51.186;3.236;2023-02-28T06:01:47;12.00;51.80
13521;DHT22;6832;51.186;3.236;2023-02-28T06:04:16;11.90;51.70
13521;DHT22;6832;51.186;3.236;2023-02-28T06:06:46;11.90;51.70
13521;DHT22;6832;51.186;3.236;2023-02-28T06:09:13;12.00;51.80
13521;DHT22;6832;51.186;3.236;2023-02-28T06:11:40;11.90;51.80
13521;DHT22;6832;51.186;3.236;2023-02-28T06:14:09;11.90;51.80
13521;DHT22;6832;51.186;3.236;2023-02-28T06:16:39;11.90;51.80
13521;DHT22;6832;51.186;3.236;2023-02-28T06:19:06;11.90;51.80
13521;DHT22;6832;51.186;3.236;2023-02-28T06:21:33;11.90;51.80
13521;DHT22;6832;51.186;3.236;2023-02-28T06:24:02;11.90;51.80
13521;DHT22;6832;51.186;3.236;2023-02-28T06:26:30;11.90;51.80
13521;DHT22;6832;51.186;3.236;2023-02-28T06:28:57;11.90;51.80
13521;DHT22;6832;51.186;3.236;2023-02-28T06:31:25;11.90;51.80
13521;DHT22;6832;51.186;3.236;2023-02-28T06:33:52;11.90;51.80
13521;DHT22;6832;51.186;3.236;2023-02-28T06:36:19;11.90;51.80
13521;DHT22;6832;51.186;3.236;2023-02-28T06:38:46;11.90;51.80
13521;DHT22;6832;51.186;3.236;2023-02-28T06:41:18;11.90;51.80
13521;DHT22;6832;51.186;3.236;2023-02-28T06:43:45;11.90;51.70
13521;DHT22;6832;51.186;3.236;2023-02-28T06:46:13;11.90;51.80
13521;DHT22;6832;51.186;3.236;2023-02-28T06:48:41;11.90;51.80
13521;DHT22;6832;51.186;3.236;2023-02-28T06:51:10;11.90;51.80
13521;DHT22;6832;51.186;3.236;2023-02-28T06:53:38;11.90;52.40
13521;DHT22;6832;51.186;3.236;2023-02-28T06:56:06;12.00;51.90
13521;DHT22;6832;51.186;3.236;2023-02-28T06:58:36;11.90;51.80
13521;DHT22;6832;51.186;3.236;2023-02-28T07:01:04;11.90;51.80
13521;DHT22;6832;51.186;3.236;2023-02-28T07:03:31;11.90;51.80
13521;DHT22;6832;51.186;3.236;2023-02-28T07:05:58;12.00;51.90
13521;DHT22;6832;51.186;3.236;2023-02-28T07:08:26;12.00;51.90
13521;DHT22;6832;51.186;3.236;2023-02-28T07:10:57;11.90;51.80
13521;DHT22;6832;51.186;3.236;2023-02-28T07:13:24;11.90;51.80
13521;DHT22;6832;51.186;3.236;2023-02-28T07:15:56;11.90;51.80
13521;DHT22;6832;51.186;3.236;2023-02-28T07:18:24;12.00;51.90
13521;DHT22;6832;51.186;3.236;2023-02-28T07:20:51;12.00;51.90
13521;DHT22;6832;51.186;3.236;2023-02-28T07:23:18;11.90;51.80
13521;DHT22;6832;51.186;3.236;2023-02-28T07:25:45;12.00;51.90
13521;DHT22;6832;51.186;3.236;2023-02-28T07:28:12;11.90;51.80
13521;DHT22;6832;51.186;3.236;2023-02-28T07:30:40;12.00;51.80
13521;DHT22;6832;51.186;3.236;2023-02-28T07:33:08;12.00;51.90
13521;DHT22;6832;51.186;3.236;2023-02-28T07:35:35;12.00;51.90
13521;DHT22;6832;51.186;3.236;2023-02-28T07:38:03;12.00;51.90
13521;DHT22;6832;51.186;3.236;2023-02-28T07:40:30;12.00;51.90
13521;DHT22;6832;51.186;3.236;2023-02-28T07:42:58;12.10;52.00
13521;DHT22;6832;51.186;3.236;2023-02-28T07:45:29;11.90;51.90
13521;DHT22;6832;51.186;3.236;2023-02-28T07:47:57;12.00;51.90
13521;DHT22;6832;51.186;3.236;2023-02-28T07:50:26;12.00;51.90
13521;DHT22;6832;51.186;3.236;2023-02-28T07:52:56;12.00;51.90
13521;DHT22;6832;51.186;3.236;2023-02-28T07:55:26;12.00;51.90
13521;DHT22;6832;51.186;3.236;2023-02-28T07:57:53;12.00;51.90
13521;DHT22;6832;51.186;3.236;2023-02-28T08:00:21;12.00;51.90
13521;DHT22;6832;51.186;3.236;2023-02-28T08:02:48;12.00;51.90
13521;DHT22;6832;51.186;3.236;2023-02-28T08:05:15;12.00;51.90
13521;DHT22;6832;51.186;3.236;2023-02-28T08:07:44;12.00;51.90
13521;DHT22;6832;51.186;3.236;2023-02-28T08:10:11;12.00;51.80
13521;DHT22;6832;51.186;3.236;2023-02-28T08:12:38;12.00;51.80
13521;DHT22;6832;51.186;3.236;2023-02-28T08:15:06;12.10;51.90
13521;DHT22;6832;51.186;3.236;2023-02-28T08:17:33;12.00;51.80
13521;DHT22;6832;51.186;3.236;2023-02-28T08:20:00;12.00;51.80
13521;DHT22;6832;51.186;3.236;2023-02-28T08:22:27;11.90;51.70
13521;DHT22;6832;51.186;3.236;2023-02-28T08:24:57;12.00;51.80
13521;DHT22;6832;51.186;3.236;2023-02-28T08:27:24;12.00;51.80
13521;DHT22;6832;51.186;3.236;2023-02-28T08:29:51;12.00;51.80
13521;DHT22;6832;51.186;3.236;2023-02-28T08:32:19;12.00;51.80
13521;DHT22;6832;51.186;3.236;2023-02-28T08:34:49;12.00;51.80
13521;DHT22;6832;51.186;3.236;2023-02-28T08:37:22;12.00;51.70
13521;DHT22;6832;51.186;3.236;2023-02-28T08:39:57;12.10;51.80
13521;DHT22;6832;51.186;3.236;2023-02-28T08:42:24;11.90;51.70
13521;DHT22;6832;51.186;3.236;2023-02-28T08:44:51;12.00;51.70
13521;DHT22;6832;51.186;3.236;2023-02-28T08:47:19;12.00;51.80
13521;DHT22;6832;51.186;3.236;2023-02-28T08:49:46;12.00;51.80
13521;DHT22;6832;51.186;3.236;2023-02-28T08:52:13;12.10;51.90
13521;DHT22;6832;51.186;3.236;2023-02-28T08:54:40;12.00;51.70
13521;DHT22;6832;51.186;3.236;2023-02-28T08:57:11;12.00;51.70
13521;DHT22;6832;51.186;3.236;2023-02-28T08:59:40;12.00;51.80
13521;DHT22;6832;51.186;3.236;2023-02-28T09:02:08;12.00;51.70
13521;DHT22;6832;51.186;3.236;2023-02-28T09:04:36;12.10;51.80
13521;DHT22;6832;51.186;3.236;2023-02-28T09:07:03;12.00;51.70
13521;DHT22;6832;51.186;3.236;2023-02-28T09:09:30;12.00;52.30
13521;DHT22;6832;51.186;3.236;2023-02-28T09:11:57;12.10;51.90
13521;DHT22;6832;51.186;3.236;2023-02-28T09:14:25;12.00;51.70
13521;DHT22;6832;51.186;3.236;2023-02-28T09:16:52;12.00;51.70
13521;DHT22;6832;51.186;3.236;2023-02-28T09:19:20;12.10;51.80
13521;DHT22;6832;51.186;3.236;2023-02-28T09:21:47;12.10;51.80
13521;DHT22;6832;51.186;3.236;2023-02-28T09:24:14;12.10;51.80
13521;DHT22;6832;51.186;3.236;2023-02-28T09:26:41;12.10;51.90
13521;DHT22;6832;51.186;3.236;2023-02-28T09:29:09;12.10;51.90
13521;DHT22;6832;51.186;3.236;2023-02-28T09:31:38;12.10;51.90
13521;DHT22;6832;51.186;3.236;2023-02-28T09:34:04;12.00;51.90
13521;DHT22;6832;51.186;3.236;2023-02-28T09:36:32;12.00;51.90
13521;DHT22;6832;51.186;3.236;2023-02-28T09:39:00;12.10;52.00
13521;DHT22;6832;51.186;3.236;2023-02-28T09:41:32;12.10;52.00
13521;DHT22;6832;51.186;3.236;2023-02-28T09:44:07;12.10;52.00
13521;DHT22;6832;51.186;3.236;2023-02-28T09:46:43;12.10;52.00
13521;DHT22;6832;51.186;3.236;2023-02-28T09:49:14;12.10;52.00
13521;DHT22;6832;51.186;3.236;2023-02-28T09:51:47;12.10;52.00
13521;DHT22;6832;51.186;3.236;2023-02-28T09:54:17;12.10;52.10
13521;DHT22;6832;51.186;3.236;2023-02-28T09:56:48;12.00;52.00
13521;DHT22;6832;51.186;3.236;2023-02-28T09:59:29;12.10;52.00
13521;DHT22;6832;51.186;3.236;2023-02-28T10:02:04;12.10;52.10
13521;DHT22;6832;51.186;3.236;2023-02-28T10:04:43;11.90;51.90
13521;DHT22;6832;51.186;3.236;2023-02-28T10:07:28;12.10;52.10
13521;DHT22;6832;51.186;3.236;2023-02-28T10:10:02;12.10;52.10
13521;DHT22;6832;51.186;3.236;2023-02-28T10:12:32;12.10;52.00
13521;DHT22;6832;51.186;3.236;2023-02-28T10:15:00;12.20;52.20
13521;DHT22;6832;51.186;3.236;2023-02-28T10:17:36;12.10;52.20
13521;DHT22;6832;51.186;3.236;2023-02-28T10:20:09;12.10;52.10
13521;DHT22;6832;51.186;3.236;2023-02-28T10:22:42;12.10;52.10
13521;DHT22;6832;51.186;3.236;2023-02-28T10:25:18;12.10;52.20
13521;DHT22;6832;51.186;3.236;2023-02-28T10:27:45;12.10;52.20
13521;DHT22;6832;51.186;3.236;2023-02-28T10:30:13;12.10;52.10
13521;DHT22;6832;51.186;3.236;2023-02-28T10:32:48;12.10;52.20
13521;DHT22;6832;51.186;3.236;2023-02-28T10:35:17;12.10;52.20
13521;DHT22;6832;51.186;3.236;2023-02-28T10:37:46;12.10;52.10
13521;DHT22;6832;51.186;3.236;2023-02-28T10:40:28;12.20;52.30
13521;DHT22;6832;51.186;3.236;2023-02-28T10:42:57;12.10;52.20
13521;DHT22;6832;51.186;3.236;2023-02-28T10:45:25;12.10;52.10
13521;DHT22;6832;51.186;3.236;2023-02-28T10:47:55;12.10;52.10
13521;DHT22;6832;51.186;3.236;2023-02-28T10:50:29;12.10;52.20
13521;DHT22;6832;51.186;3.236;2023-02-28T10:53:10;12.10;52.20
13521;DHT22;6832;51.186;3.236;2023-02-28T10:55:41;12.10;52.20
13521;DHT22;6832;51.186;3.236;2023-02-28T10:58:21;12.10;52.10
13521;DHT22;6832;51.186;3.236;2023-02-28T11:00:48;12.10;52.20
13521;DHT22;6832;51.186;3.236;2023-02-28T11:03:30;12.10;52.20
13521;DHT22;6832;51.186;3.236;2023-02-28T11:05:58;12.10;52.20
13521;DHT22;6832;51.186;3.236;2023-02-28T11:08:30;12.10;52.20
13521;DHT22;6832;51.186;3.236;2023-02-28T11:11:00;12.10;52.20
13521;DHT22;6832;51.186;3.236;2023-02-28T11:13:31;12.10;52.20
13521;DHT22;6832;51.186;3.236;2023-02-28T11:16:03;12.10;52.20
13521;DHT22;6832;51.186;3.236;2023-02-28T11:18:37;12.10;52.20
13521;DHT22;6832;51.186;3.236;2023-02-28T11:21:06;12.10;52.20
13521;DHT22;6832;51.186;3.236;2023-02-28T11:23:35;12.10;52.20
13521;DHT22;6832;51.186;3.236;2023-02-28T11:26:04;12.10;52.20
13521;DHT22;6832;51.186;3.236;2023-02-28T11:28:36;12.10;52.20
13521;DHT22;6832;51.186;3.236;2023-02-28T11:31:14;12.10;52.20
13521;DHT22;6832;51.186;3.236;2023-02-28T11:33:45;12.10;52.20
13521;DHT22;6832;51.186;3.236;2023-02-28T11:36:18;12.10;52.20
13521;DHT22;6832;51.186;3.236;2023-02-28T11:38:46;12.10;52.20
13521;DHT22;6832;51.186;3.236;2023-02-28T11:41:40;12.10;52.20
13521;DHT22;6832;51.186;3.236;2023-02-28T11:44:21;12.20;52.20
13521;DHT22;6832;51.186;3.236;2023-02-28T11:46:52;12.10;52.20
13521;DHT22;6832;51.186;3.236;2023-02-28T11:49:31;12.10;52.20
13521;DHT22;6832;51.186;3.236;2023-02-28T11:52:14;12.10;52.20
13521;DHT22;6832;51.186;3.236;2023-02-28T11:55:07;12.10;52.20
13521;DHT22;6832;51.186;3.236;2023-02-28T11:57:50;12.10;52.20
13521;DHT22;6832;51.186;3.236;2023-02-28T12:00:32;12.10;52.20
13521;DHT22;6832;51.186;3.236;2023-02-28T12:03:11;12.10;52.20
13521;DHT22;6832;51.186;3.236;2023-02-28T12:05:45;12.20;52.20
13521;DHT22;6832;51.186;3.236;2023-02-28T12:08:23;12.10;52.20
13521;DHT22;6832;51.186;3.236;2023-02-28T12:11:01;12.20;52.20
13521;DHT22;6832;51.186;3.236;2023-02-28T12:13:41;12.10;52.20
13521;DHT22;6832;51.186;3.236;2023-02-28T12:16:20;12.10;52.20
13521;DHT22;6832;51.186;3.236;2023-02-28T12:19:02;12.20;52.20
13521;DHT22;6832;51.186;3.236;2023-02-28T12:21:43;12.20;52.30
13521;DHT22;6832;51.186;3.236;2023-02-28T12:24:26;12.20;52.40
13521;DHT22;6832;51.186;3.236;2023-02-28T12:26:58;12.20;52.40
13521;DHT22;6832;51.186;3.236;2023-02-28T12:29:29;12.20;52.40
13521;DHT22;6832;51.186;3.236;2023-02-28T12:32:01;12.20;52.40
13521;DHT22;6832;51.186;3.236;2023-02-28T12:34:33;12.20;52.40
13521;DHT22;6832;51.186;3.236;2023-02-28T12:37:06;12.20;52.50
13521;DHT22;6832;51.186;3.236;2023-02-28T12:39:36;12.20;52.50
13521;DHT22;6832;51.186;3.236;2023-02-28T12:42:08;12.30;52.60
13521;DHT22;6832;51.186;3.236;2023-02-28T12:44:42;12.20;52.60
13521;DHT22;6832;51.186;3.236;2023-02-28T12:47:14;12.30;52.70
13521;DHT22;6832;51.186;3.236;2023-02-28T12:49:46;12.20;52.60
13521;DHT22;6832;51.186;3.236;2023-02-28T12:52:21;12.30;52.70
13521;DHT22;6832;51.186;3.236;2023-02-28T12:54:52;12.40;52.80
13521;DHT22;6832;51.186;3.236;2023-02-28T12:57:27;12.30;52.70
13521;DHT22;6832;51.186;3.236;2023-02-28T12:59:57;12.30;52.70
13521;DHT22;6832;51.186;3.236;2023-02-28T13:02:51;12.30;52.60
13521;DHT22;6832;51.186;3.236;2023-02-28T13:05:32;12.30;52.60
13521;DHT22;6832;51.186;3.236;2023-02-28T13:08:36;12.40;52.70
13521;DHT22;6832;51.186;3.236;2023-02-28T13:11:24;12.40;52.70
13521;DHT22;6832;51.186;3.236;2023-02-28T13:13:57;12.40;52.70
13521;DHT22;6832;51.186;3.236;2023-02-28T13:16:25;12.40;52.60
13521;DHT22;6832;51.186;3.236;2023-02-28T13:18:52;12.40;52.60
13521;DHT22;6832;51.186;3.236;2023-02-28T13:21:24;12.50;52.70
13521;DHT22;6832;51.186;3.236;2023-02-28T13:24:01;12.40;52.60
13521;DHT22;6832;51.186;3.236;2023-02-28T13:29:37;12.50;52.70
13521;DHT22;6832;51.186;3.236;2023-02-28T13:32:35;12.50;52.70
13521;DHT22;6832;51.186;3.236;2023-02-28T13:38:22;12.60;52.80
13521;DHT22;6832;51.186;3.236;2023-02-28T13:40:51;12.60;52.70
13521;DHT22;6832;51.186;3.236;2023-02-28T13:43:18;12.60;52.70
13521;DHT22;6832;51.186;3.236;2023-02-28T13:46:08;12.60;52.60
13521;DHT22;6832;51.186;3.236;2023-02-28T13:48:39;12.60;52.70
13521;DHT22;6832;51.186;3.236;2023-02-28T13:51:28;12.60;52.60
13521;DHT22;6832;51.186;3.236;2023-02-28T13:54:10;12.60;52.70
13521;DHT22;6832;51.186;3.236;2023-02-28T13:56:46;12.70;52.70
13521;DHT22;6832;51.186;3.236;2023-02-28T13:59:23;12.60;52.60
13521;DHT22;6832;51.186;3.236;2023-02-28T14:02:03;12.70;52.70
13521;DHT22;6832;51.186;3.236;2023-02-28T14:05:02;12.70;52.60
13521;DHT22;6832;51.186;3.236;2023-02-28T14:07:36;12.70;52.70
13521;DHT22;6832;51.186;3.236;2023-02-28T14:10:06;12.70;52.60
13521;DHT22;6832;51.186;3.236;2023-02-28T14:12:56;12.70;52.70
13521;DHT22;6832;51.186;3.236;2023-02-28T14:15:41;12.70;52.60
13521;DHT22;6832;51.186;3.236;2023-02-28T14:18:22;12.80;52.70
13521;DHT22;6832;51.186;3.236;2023-02-28T14:20:55;12.70;52.60
13521;DHT22;6832;51.186;3.236;2023-02-28T14:30:08;12.80;52.70
13521;DHT22;6832;51.186;3.236;2023-02-28T14:32:44;12.80;52.70
13521;DHT22;6832;51.186;3.236;2023-02-28T14:35:22;12.80;52.70
13521;DHT22;6832;51.186;3.236;2023-02-28T14:37:53;12.80;52.70
13521;DHT22;6832;51.186;3.236;2023-02-28T14:40:25;12.80;52.80
13521;DHT22;6832;51.186;3.236;2023-02-28T14:42:56;12.80;52.70
13521;DHT22;6832;51.186;3.236;2023-02-28T14:45:24;12.90;52.80
13521;DHT22;6832;51.186;3.236;2023-02-28T14:47:52;12.80;52.60
13521;DHT22;6832;51.186;3.236;2023-02-28T14:50:21;12.80;52.60
13521;DHT22;6832;51.186;3.236;2023-02-28T14:52:50;12.90;52.70
13521;DHT22;6832;51.186;3.236;2023-02-28T14:55:19;12.90;52.70
13521;DHT22;6832;51.186;3.236;2023-02-28T14:57:54;12.90;52.60
13521;DHT22;6832;51.186;3.236;2023-02-28T15:00:25;12.90;52.60
13521;DHT22;6832;51.186;3.236;2023-02-28T15:02:54;12.90;52.60
13521;DHT22;6832;51.186;3.236;2023-02-28T15:05:27;12.90;52.60
13521;DHT22;6832;51.186;3.236;2023-02-28T15:08:04;12.90;52.60
13521;DHT22;6832;51.186;3.236;2023-02-28T15:10:32;12.90;52.60
13521;DHT22;6832;51.186;3.236;2023-02-28T15:13:00;12.90;52.60
13521;DHT22;6832;51.186;3.236;2023-02-28T15:15:40;12.90;52.50
13521;DHT22;6832;51.186;3.236;2023-02-28T15:18:13;13.00;52.60
13521;DHT22;6832;51.186;3.236;2023-02-28T15:20:42;13.00;52.60
13521;DHT22;6832;51.186;3.236;2023-02-28T15:23:11;12.90;52.50
13521;DHT22;6832;51.186;3.236;2023-02-28T15:25:38;12.90;52.40
13521;DHT22;6832;51.186;3.236;2023-02-28T15:28:13;12.90;52.40
13521;DHT22;6832;51.186;3.236;2023-02-28T15:30:55;13.00;52.50
13521;DHT22;6832;51.186;3.236;2023-02-28T15:33:23;13.00;52.50
13521;DHT22;6832;51.186;3.236;2023-02-28T15:35:51;12.90;52.40
13521;DHT22;6832;51.186;3.236;2023-02-28T15:38:22;13.00;52.50
13521;DHT22;6832;51.186;3.236;2023-02-28T15:40:53;13.00;52.50
13521;DHT22;6832;51.186;3.236;2023-02-28T15:43:25;13.00;52.50
13521;DHT22;6832;51.186;3.236;2023-02-28T15:45:57;12.90;52.40
13521;DHT22;6832;51.186;3.236;2023-02-28T15:48:27;13.00;52.50
13521;DHT22;6832;51.186;3.236;2023-02-28T15:50:57;13.00;52.40
13521;DHT22;6832;51.186;3.236;2023-02-28T15:53:31;13.00;52.40
13521;DHT22;6832;51.186;3.236;2023-02-28T15:56:01;13.00;52.40
13521;DHT22;6832;51.186;3.236;2023-02-28T15:58:29;13.00;52.40
13521;DHT22;6832;51.186;3.236;2023-02-28T16:01:08;13.00;52.40
13521;DHT22;6832;51.186;3.236;2023-02-28T16:03:44;13.10;52.40
13521;DHT22;6832;51.186;3.236;2023-02-28T16:06:38;13.10;52.40
13521;DHT22;6832;51.186;3.236;2023-02-28T16:09:10;13.10;52.30
13521;DHT22;6832;51.186;3.236;2023-02-28T16:11:41;13.00;52.20
13521;DHT22;6832;51.186;3.236;2023-02-28T16:14:15;13.10;52.20
13521;DHT22;6832;51.186;3.236;2023-02-28T16:16:47;13.10;51.90
13521;DHT22;6832;51.186;3.236;2023-02-28T16:19:15;13.00;51.70
13521;DHT22;6832;51.186;3.236;2023-02-28T16:21:42;13.00;51.50
13521;DHT22;6832;51.186;3.236;2023-02-28T16:24:09;13.10;51.30